WEATHER DATA

YESTERDAY
Time Temp. Dewp. Hum. Bar.
00:08 -1.8 -2.5 94 1007.3
00:19 -1.8 -2.5 94 1007.4
00:29 -1.8 -2.5 94 1007.5
00:48 -1.8 -2.5 94 1007.9
00:59 -1.9 -2.6 94 1008
01:09 -1.9 -2.6 94 1008.2
01:19 -1.9 -2.6 94 1008.4
01:29 -1.9 -2.6 94 1008.6
01:39 -2 -2.7 94 1008.7
01:49 -2 -2.7 94 1008.9
01:59 -2 -2.7 94 1009
02:10 -2 -2.7 94 1009.2
02:20 -2.1 -2.8 94 1009.4
02:29 -2 -2.7 94 1009.6
02:40 -2 -2.7 94 1009.7
02:50 -2 -2.7 94 1009.8
03:00 -2 -2.7 94 1010.1
03:10 -2 -2.7 94 1010.3
03:20 -1.9 -2.6 94 1010.4
03:30 -1.9 -2.6 94 1010.6
03:40 -1.8 -2.5 94 1010.9
03:50 -1.8 -2.5 94 1011
04:01 -1.9 -2.6 94 1011.2
04:10 -1.8 -2.5 94 1011.3
04:20 -1.8 -2.5 94 1011.5
04:31 -1.7 -2.4 94 1011.8
04:41 -1.7 -2.4 94 1011.9
04:51 -1.7 -2.4 94 1012
05:01 -1.7 -2.4 94 1012.2
05:11 -1.7 -2.4 94 1012.3
05:21 -1.7 -2.4 94 1012.5
05:31 -1.8 -2.7 93 1012.6
05:42 -1.8 -2.7 93 1012.8
05:52 -1.9 -2.8 93 1013
06:01 -1.9 -2.8 93 1013.1
06:11 -2 -2.9 93 1013.4
06:22 -2.1 -3 93 1013.5
06:32 -2.2 -3.1 93 1013.7
06:42 -2.3 -3.2 93 1013.8
06:52 -2.4 -3.3 93 1014.1
07:02 -2.5 -3.4 93 1014.4
07:12 -2.6 -3.5 93 1014.7
07:22 -2.7 -3.6 93 1014.8
07:33 -2.8 -3.7 93 1015
07:42 -2.8 -3.7 93 1015.2
07:52 -2.9 -3.8 93 1015.3
08:03 -2.9 -3.8 93 1015.5
08:13 -3 -3.9 93 1015.7
08:23 -3 -3.9 93 1015.9
08:32 -3.1 -4 93 1016
08:43 -3.1 -4 93 1016.1
08:53 -3.1 -4 93 1016.1
09:03 -3 -3.9 93 1016.3
09:13 -2.9 -3.8 93 1016.4
09:24 -2.8 -3.7 93 1016.6
09:33 -2.8 -3.7 93 1016.7
09:43 -2.6 -3.6 92 1016.8
09:54 -2.6 -3.6 92 1016.9
10:04 -2.5 -3.5 92 1017
10:14 -2.4 -3.5 91 1017.2
10:24 -2.3 -3.4 91 1017.4
10:34 -2.2 -3.5 90 1017.5
10:44 -2.1 -3.5 89 1017.5
10:54 -2 -3.4 89 1017.6
11:05 -2 -3.4 89 1017.7
11:14 -2 -3.4 89 1017.8
11:24 -2 -3.3 90 1017.9
11:34 -1.9 -3.3 89 1018
11:45 -1.8 -3.2 89 1018.2
11:55 -1.8 -3.2 89 1018.4
12:04 -1.7 -3.2 88 1018.6
12:15 -1.6 -3.3 87 1018.8
12:25 -1.6 -3.3 87 1018.9
12:34 -1.6 -3.4 86 1018.9
12:45 -1.6 -3.4 86 1019.1
12:56 -1.6 -3.4 86 1019.1
13:05 -1.6 -3.4 86 1019.2
13:15 -1.6 -3.4 86 1019.3
13:26 -1.6 -3.4 86 1019.3
13:36 -1.7 -3.5 86 1019.4
13:46 -1.8 -3.5 87 1019.4
13:55 -1.9 -3.6 87 1019.4
14:06 -2.1 -3.8 87 1019.5
14:16 -2.2 -3.7 88 1019.5
14:26 -2.3 -3.8 88 1019.6
14:36 -2.4 -3.9 88 1019.6
14:46 -2.6 -4.1 88 1019.6
14:56 -2.7 -4.2 88 1019.6
15:06 -2.8 -4.3 88 1019.6
15:17 -3.1 -4.6 88 1019.6
15:27 -3.4 -4.9 88 1019.7
15:36 -3.4 -4.8 89 1019.8
15:47 -3.7 -5.1 89 1019.9
15:57 -3.9 -5.3 89 1020
16:07 -4.1 -5.5 89 1020.1
16:17 -4.3 -5.7 89 1020.3
16:28 -4.4 -5.6 90 1020.3
16:37 -4.5 -5.7 90 1020.4
16:47 -4.7 -5.9 90 1020.6
16:57 -4.8 -6 90 1020.6
17:08 -4.9 -6.1 90 1020.7
17:18 -5 -6.2 90 1020.7
17:27 -5.1 -6.3 90 1020.7
17:38 -5.2 -6.3 91 1020.8
17:48 -5.3 -6.4 91 1020.8
17:58 -5.5 -6.6 91 1020.9
18:08 -5.6 -6.7 91 1020.9
18:19 -5.6 -6.7 91 1020.9
18:29 -5.7 -6.8 91 1021
18:39 -5.8 -6.9 91 1021.1
18:49 -6 -7.1 91 1021.1
19:00 -6.1 -7.2 91 1021.1
19:09 -6.3 -7.4 91 1021.2
19:30 -6.4 -7.5 91 1021.2
19:40 -6.6 -7.7 91 1021.4
19:50 -6.7 -7.8 91 1021.4
19:59 -6.8 -7.9 91 1021.5
20:10 -6.9 -8 91 1021.6
20:20 -6.9 -8 91 1021.8
20:30 -6.9 -7.9 92 1021.8
20:40 -6.9 -7.9 92 1021.8
20:50 -7 -8.1 91 1021.9
21:00 -7.1 -8.2 91 1022
21:10 -7 -8 92 1021.9
21:21 -7 -8 92 1021.8
21:31 -7.1 -8.2 91 1021.9
21:40 -7.2 -8.3 91 1022
21:51 -7.3 -8.4 91 1022
22:01 -7.4 -8.5 91 1022
22:11 -7.6 -8.7 91 1021.9
22:21 -7.7 -8.8 91 1021.9
22:32 -7.8 -8.9 91 1021.9
22:41 -7.9 -9 91 1021.8
22:51 -8.1 -9.3 90 1021.9
23:01 -8.2 -9.3 91 1021.9
23:12 -8.2 -9.3 91 1021.8
23:22 -8.3 -9.4 91 1022
23:31 -8.4 -9.5 91 1022
23:40 -8.5 -9.7 90 1022.1
23:50 -8.7 -9.9 90 1022

DAY STATISTIC

2020-10-30
TEMPERATURE
AVERAGE
-3.6
HIGH
-1.6
12:15
LOW
-8.7
23:50
PRESSURE
AVERAGE
1017.0
HIGH
1022.1
23:40
LOW
1007.3
00:08
DEWPOINT
AVERAGE
-4.7
HIGH
-2.4
04:31
LOW
-9.9
23:50
HUMIDITY
AVERAGE
91
HIGH
94
00:08
LOW
86
12:34
TEMPERATURE (°C)
LOW
-8.7
HIGH
-1.6
AVERAGE
-3.6
PRESSURE (hpa)
LOW
1007.3
HIGH
1022.1
AVERAGE
1017.0
DEVICE